Time;durP1;ratioP1;P1;durP2;ratioP2;P2;SDS_P1;SDS_P2;PMS_P1;PMS_P2;Temp;Humidity;BMP_temperature;BMP_pressure;BME280_temperature;BME280_humidity;BME280_pressure;Samples;Min_cycle;Max_cycle;Signal;HPM_P1;HPM_P2
2022/01/11 00:00:07;;;;;;;28.13;15.93;;;4.40;99.90;;;;;;5039030;28;20644;-72
2022/01/11 00:02:35;;;;;;;35.45;14.88;;;4.40;99.90;;;;;;5039037;28;20037;-71
2022/01/11 00:05:01;;;;;;;35.28;16.08;;;4.40;99.90;;;;;;5037483;28;20615;-72
2022/01/11 00:07:29;;;;;;;29.10;16.45;;;4.40;99.90;;;;;;5039039;28;20029;-71
2022/01/11 00:09:56;;;;;;;35.35;16.88;;;4.50;99.90;;;;;;5039128;28;20096;-71
2022/01/11 00:12:22;;;;;;;36.88;15.50;;;4.40;99.90;;;;;;5035785;28;20032;-72
2022/01/11 00:14:48;;;;;;;35.75;17.35;;;4.40;99.90;;;;;;5035950;28;20503;-72
2022/01/11 00:17:13;;;;;;;;;;;4.50;99.90;;;;;;5036735;28;20121;-72
2022/01/11 00:19:38;;;;;;;38.42;16.30;;;4.50;99.90;;;;;;5039301;28;20579;-71
2022/01/11 00:22:07;;;;;;;33.88;17.05;;;4.50;99.90;;;;;;5038187;28;20071;-72
2022/01/11 00:24:35;;;;;;;40.67;17.15;;;4.50;99.90;;;;;;5038571;28;20489;-72
2022/01/11 00:27:08;;;;;;;37.22;18.52;;;4.50;99.90;;;;;;5035286;28;20029;-72
2022/01/11 00:29:36;;;;;;;47.45;18.58;;;4.50;99.90;;;;;;5038523;28;20033;-71
2022/01/11 00:32:08;;;;;;;40.20;19.55;;;4.50;99.90;;;;;;5034456;28;20048;-71
2022/01/11 00:35:10;;;;;;;39.70;17.42;;;4.60;99.90;;;;;;5037651;28;20382;-72
2022/01/11 00:37:26;;;;;;;40.15;17.08;;;4.70;99.90;;;;;;5035937;28;20033;-72
2022/01/11 00:39:52;;;;;;;39.53;17.17;;;4.70;99.90;;;;;;5036948;28;20022;-72
2022/01/11 00:42:20;;;;;;;46.15;18.92;;;4.60;99.90;;;;;;5037082;28;20029;-71
2022/01/11 00:44:45;;;;;;;44.00;18.83;;;4.60;99.90;;;;;;5036722;28;20478;-71
2022/01/11 00:47:11;;;;;;;47.95;17.95;;;4.60;99.90;;;;;;5033725;28;20076;-71
2022/01/11 00:49:40;;;;;;;36.28;18.55;;;4.60;99.90;;;;;;5037416;28;20390;-72
2022/01/11 00:52:06;;;;;;;43.25;17.52;;;4.70;99.90;;;;;;5035455;28;20115;-71
2022/01/11 00:54:31;;;;;;;55.10;20.67;;;4.60;99.90;;;;;;5034281;28;20026;-71
2022/01/11 00:56:57;;;;;;;42.28;16.10;;;4.60;99.90;;;;;;5037838;28;20469;-72
2022/01/11 00:59:22;;;;;;;40.65;17.73;;;4.60;99.90;;;;;;5038395;28;20609;-71
2022/01/11 01:01:49;;;;;;;36.60;16.52;;;4.60;99.90;;;;;;5035654;28;20118;-72
2022/01/11 01:04:14;;;;;;;;;;;4.60;99.90;;;;;;5038509;28;20153;-72
2022/01/11 01:06:41;;;;;;;35.88;16.73;;;4.60;99.90;;;;;;5038809;28;20222;-71
2022/01/11 01:09:08;;;;;;;40.58;15.35;;;4.60;99.90;;;;;;5038190;28;20531;-71
2022/01/11 01:11:34;;;;;;;33.50;15.55;;;4.60;99.90;;;;;;5038839;28;20439;-71
2022/01/11 01:14:00;;;;;;;40.17;17.30;;;4.50;99.90;;;;;;5037678;28;20041;-71
2022/01/11 01:16:25;;;;;;;;;;;4.50;99.90;;;;;;5039069;28;20052;-71
2022/01/11 01:18:51;;;;;;;35.25;15.32;;;4.50;99.90;;;;;;5038770;28;20381;-72
2022/01/11 01:21:17;;;;;;;27.95;14.68;;;4.50;99.90;;;;;;5036738;28;20520;-72
2022/01/11 01:23:42;;;;;;;;;;;4.50;99.90;;;;;;5036251;28;20028;-72
2022/01/11 01:26:08;;;;;;;29.73;15.40;;;4.50;99.90;;;;;;5038060;28;19916;-71
2022/01/11 01:28:33;;;;;;;33.33;16.13;;;4.50;99.90;;;;;;5036998;28;20116;-72
2022/01/11 01:31:01;;;;;;;24.65;13.13;;;4.40;99.90;;;;;;5034258;28;20711;-72
2022/01/11 01:33:28;;;;;;;27.90;13.23;;;4.50;99.90;;;;;;5037628;28;20030;-72
2022/01/11 01:35:59;;;;;;;30.40;13.43;;;4.40;99.90;;;;;;5036844;28;20112;-72
2022/01/11 01:38:25;;;;;;;23.95;12.93;;;4.40;99.90;;;;;;5034627;28;20021;-72
2022/01/11 01:40:54;;;;;;;26.30;13.38;;;4.40;99.90;;;;;;5034986;28;20021;-72
2022/01/11 01:43:20;;;;;;;29.50;13.45;;;4.40;99.90;;;;;;5038167;28;20026;-72
2022/01/11 01:45:49;;;;;;;31.85;13.68;;;4.40;99.90;;;;;;5035838;28;20031;-72
2022/01/11 01:48:15;;;;;;;30.58;14.25;;;4.40;99.90;;;;;;5035868;28;20048;-71
2022/01/11 01:50:42;;;;;;;25.85;14.48;;;4.40;99.90;;;;;;5037119;28;20545;-71
2022/01/11 01:53:10;;;;;;;;;;;4.40;99.90;;;;;;5037398;28;20034;-71
2022/01/11 01:55:40;;;;;;;24.23;12.15;;;4.40;99.90;;;;;;5036679;28;19916;-71
2022/01/11 01:58:06;;;;;;;30.77;13.65;;;4.50;99.90;;;;;;5033935;28;20026;-71
2022/01/11 02:00:39;;;;;;;26.65;13.57;;;4.50;99.90;;;;;;5038690;28;20040;-71
2022/01/11 02:03:10;;;;;;;26.67;13.27;;;4.50;99.90;;;;;;5041844;28;20032;-71
2022/01/11 02:05:35;;;;;;;29.42;14.00;;;4.50;99.90;;;;;;5038129;28;20033;-71
2022/01/11 02:08:01;;;;;;;32.10;14.95;;;4.60;99.90;;;;;;5040192;28;20021;-71
2022/01/11 02:10:26;;;;;;;27.88;13.70;;;4.50;99.90;;;;;;5039957;28;20128;-72
2022/01/11 02:12:52;;;;;;;26.95;13.80;;;4.50;99.90;;;;;;5041537;28;20436;-71
2022/01/11 02:15:18;;;;;;;28.50;13.50;;;4.50;99.90;;;;;;5040469;28;20076;-72
2022/01/11 02:17:45;;;;;;;27.83;14.00;;;4.50;99.90;;;;;;5038851;28;20029;-71
2022/01/11 02:20:12;;;;;;;30.42;15.57;;;4.50;99.90;;;;;;5039254;28;20025;-71
2022/01/11 02:22:37;;;;;;;30.40;15.48;;;4.50;99.90;;;;;;5038607;28;20031;-71
2022/01/11 02:25:03;;;;;;;33.08;14.55;;;4.40;99.90;;;;;;5039802;28;20412;-72
2022/01/11 02:27:29;;;;;;;29.40;13.23;;;4.40;99.90;;;;;;5041019;28;20028;-71
2022/01/11 02:29:55;;;;;;;38.10;17.80;;;4.50;99.90;;;;;;5041331;28;20073;-71
2022/01/11 02:32:21;;;;;;;48.70;24.45;;;4.50;99.90;;;;;;5040417;28;20021;-72
2022/01/11 02:34:46;;;;;;;44.15;21.40;;;4.50;99.90;;;;;;5038814;28;20026;-71
2022/01/11 02:37:13;;;;;;;43.10;20.90;;;4.40;99.90;;;;;;5038287;28;20029;-72
2022/01/11 02:39:39;;;;;;;39.10;19.85;;;4.50;99.90;;;;;;5039794;28;20025;-72
2022/01/11 02:42:05;;;;;;;47.83;26.00;;;4.50;99.90;;;;;;5039445;28;20401;-72
2022/01/11 02:44:30;;;;;;;40.03;21.42;;;4.50;99.90;;;;;;5040543;28;20070;-72
2022/01/11 02:46:56;;;;;;;;;;;4.60;99.90;;;;;;5038778;28;20382;-72
2022/01/11 02:49:22;;;;;;;52.50;25.60;;;4.60;99.90;;;;;;5039688;28;19920;-72
2022/01/11 02:51:47;;;;;;;39.97;19.02;;;4.60;99.90;;;;;;5036809;28;20041;-72
2022/01/11 02:54:13;;;;;;;;;;;4.60;99.90;;;;;;5024561;28;20044;-73
2022/01/11 02:56:38;;;;;;;33.33;16.52;;;4.60;99.90;;;;;;5039266;28;19920;-70
2022/01/11 02:59:04;;;;;;;34.97;16.85;;;4.60;99.90;;;;;;5039807;28;20511;-71
2022/01/11 03:01:29;;;;;;;34.60;17.30;;;4.60;99.90;;;;;;5038359;28;20025;-71
2022/01/11 03:03:55;;;;;;;36.08;18.00;;;4.60;99.90;;;;;;5039798;28;20028;-71
2022/01/11 03:06:21;;;;;;;;;;;4.50;99.90;;;;;;5037515;28;20021;-71
2022/01/11 03:08:47;;;;;;;35.28;16.65;;;4.60;99.90;;;;;;5040206;28;19920;-71
2022/01/11 03:11:15;;;;;;;33.03;16.98;;;4.70;99.90;;;;;;5036359;28;20021;-71
2022/01/11 03:13:43;;;;;;;37.35;15.93;;;4.70;99.90;;;;;;5039354;28;20037;-72
2022/01/11 03:16:09;;;;;;;35.00;14.90;;;4.70;99.90;;;;;;5022865;28;20643;-71
2022/01/11 03:18:35;;;;;;;36.40;16.30;;;4.80;99.90;;;;;;5037521;28;20041;-72
2022/01/11 03:21:02;;;;;;;33.08;16.42;;;4.80;99.90;;;;;;5038323;28;20025;-71
2022/01/11 03:23:27;;;;;;;36.47;16.92;;;4.70;99.90;;;;;;5040487;28;20032;-71
2022/01/11 03:25:53;;;;;;;32.83;16.30;;;4.70;99.90;;;;;;5036222;28;20108;-71
2022/01/11 03:28:20;;;;;;;;;;;4.70;99.90;;;;;;5040616;28;20030;-71
2022/01/11 03:30:46;;;;;;;28.38;15.35;;;4.80;99.90;;;;;;5039671;28;19915;-71
2022/01/11 03:33:12;;;;;;;31.95;14.98;;;4.80;99.90;;;;;;5037209;28;20033;-71
2022/01/11 03:35:39;;;;;;;29.13;15.90;;;4.70;99.90;;;;;;5037705;28;20492;-71
2022/01/11 03:38:07;;;;;;;31.85;16.27;;;4.60;99.90;;;;;;5036950;28;20029;-71
2022/01/11 03:40:33;;;;;;;34.67;16.52;;;4.60;99.90;;;;;;5037946;28;20033;-71
2022/01/11 03:42:59;;;;;;;34.15;16.65;;;4.50;99.90;;;;;;5040168;28;20132;-71
2022/01/11 03:45:25;;;;;;;;;;;4.50;99.90;;;;;;5038083;28;20021;-70
2022/01/11 03:47:53;;;;;;;28.67;13.83;;;4.50;99.90;;;;;;5036603;28;20003;-71
2022/01/11 03:50:20;;;;;;;33.40;15.60;;;4.60;99.90;;;;;;5037472;28;20147;-70
2022/01/11 03:52:46;;;;;;;38.28;17.58;;;4.60;99.90;;;;;;5037395;28;20436;-71
2022/01/11 03:55:15;;;;;;;25.98;13.82;;;4.50;99.90;;;;;;5037615;28;20030;-71
2022/01/11 03:57:41;;;;;;;27.80;15.60;;;4.50;99.90;;;;;;5037360;28;20446;-71
2022/01/11 04:00:14;;;;;;;30.52;16.63;;;4.50;99.90;;;;;;5037129;28;20021;-71
2022/01/11 04:02:41;;;;;;;34.17;16.85;;;4.50;99.90;;;;;;5037683;28;20064;-72
2022/01/11 04:05:07;;;;;;;39.17;18.70;;;4.50;99.90;;;;;;5038767;28;20022;-72
2022/01/11 04:07:33;;;;;;;32.90;14.88;;;4.50;99.90;;;;;;5038715;28;20060;-71
2022/01/11 04:10:00;;;;;;;30.50;14.68;;;4.50;99.90;;;;;;5035789;28;20056;-71
2022/01/11 04:12:25;;;;;;;32.20;15.60;;;4.50;99.90;;;;;;5035409;28;20030;-72
2022/01/11 04:14:51;;;;;;;38.58;16.23;;;4.60;99.90;;;;;;5038072;28;20095;-71
2022/01/11 04:17:18;;;;;;;;;;;4.60;99.90;;;;;;5039118;28;20108;-71
2022/01/11 04:19:43;;;;;;;27.23;14.32;;;4.60;99.90;;;;;;5037289;28;19913;-71
2022/01/11 04:22:09;;;;;;;28.92;14.38;;;4.70;99.90;;;;;;5037735;28;20538;-72
2022/01/11 04:24:35;;;;;;;36.95;15.40;;;4.70;99.90;;;;;;5038675;28;20029;-72
2022/01/11 04:27:00;;;;;;;30.92;13.13;;;4.60;99.90;;;;;;5034836;28;20426;-71
2022/01/11 04:29:26;;;;;;;27.77;13.38;;;4.60;99.90;;;;;;5031419;28;20033;-71
2022/01/11 04:31:51;;;;;;;27.67;14.43;;;4.70;99.90;;;;;;5039228;28;20094;-71
2022/01/11 04:34:17;;;;;;;31.08;14.48;;;4.60;99.90;;;;;;5039341;28;20028;-71
2022/01/11 04:36:43;;;;;;;30.83;14.82;;;4.60;99.90;;;;;;5037468;28;20033;-72
2022/01/11 04:39:11;;;;;;;36.95;15.15;;;4.60;99.90;;;;;;5038967;28;20714;-71
2022/01/11 04:41:37;;;;;;;36.03;15.70;;;4.60;99.90;;;;;;5038535;28;20021;-71
2022/01/11 04:44:04;;;;;;;34.17;14.65;;;4.60;99.90;;;;;;5037825;28;20036;-71
2022/01/11 04:46:30;;;;;;;33.20;15.07;;;4.60;99.90;;;;;;5035608;28;20050;-71
2022/01/11 04:48:55;;;;;;;28.25;13.70;;;4.70;99.90;;;;;;5037114;28;20095;-70
2022/01/11 04:51:22;;;;;;;27.63;14.30;;;4.60;99.90;;;;;;5035535;28;20025;-71
2022/01/11 04:53:48;;;;;;;;;;;4.50;99.90;;;;;;5037930;28;20029;-71
2022/01/11 04:56:14;;;;;;;31.17;15.05;;;4.50;99.90;;;;;;5037717;28;19951;-71
2022/01/11 04:58:40;;;;;;;34.83;15.85;;;4.40;99.90;;;;;;5037184;28;20033;-71
2022/01/11 05:01:06;;;;;;;27.23;13.98;;;4.30;99.90;;;;;;5035376;28;20035;-71
2022/01/11 05:03:32;;;;;;;24.70;14.27;;;4.30;99.90;;;;;;5037253;28;20030;-71
2022/01/11 05:05:57;;;;;;;30.00;13.45;;;4.30;99.90;;;;;;5035245;28;20029;-71
2022/01/11 05:08:23;;;;;;;;;;;4.30;99.90;;;;;;5037649;28;20033;-72
2022/01/11 05:10:49;;;;;;;25.65;11.98;;;4.30;99.90;;;;;;5036325;28;20030;-72
2022/01/11 05:13:16;;;;;;;27.25;13.30;;;4.20;99.90;;;;;;5037069;28;20469;-71
2022/01/11 05:15:42;;;;;;;31.50;14.38;;;4.20;99.90;;;;;;5035568;28;20401;-71
2022/01/11 05:18:09;;;;;;;28.02;15.02;;;4.20;99.90;;;;;;5037365;28;20115;-71
2022/01/11 05:20:36;;;;;;;29.17;14.75;;;4.10;99.90;;;;;;5037185;28;20549;-71
2022/01/11 05:23:03;;;;;;;25.10;11.70;;;4.20;99.90;;;;;;5038215;28;20635;-72
2022/01/11 05:25:29;;;;;;;24.45;12.32;;;4.20;99.90;;;;;;5036786;28;20063;-72
2022/01/11 05:27:54;;;;;;;28.50;13.95;;;4.10;99.90;;;;;;5037795;28;20021;-71
2022/01/11 05:30:20;;;;;;;21.08;12.32;;;4.10;99.90;;;;;;5038710;28;20065;-72
2022/01/11 05:32:48;;;;;;;24.63;13.55;;;4.20;99.90;;;;;;5036744;28;20033;-72
2022/01/11 05:35:15;;;;;;;40.63;20.25;;;4.20;99.90;;;;;;5039834;28;20029;-73
2022/01/11 05:37:40;;;;;;;62.25;32.00;;;4.30;99.90;;;;;;5041354;28;20033;-72
2022/01/11 05:40:07;;;;;;;35.63;17.63;;;4.20;99.90;;;;;;5040130;28;20041;-72
2022/01/11 05:42:33;;;;;;;44.63;24.63;;;4.20;99.90;;;;;;5040889;28;20500;-72
2022/01/11 05:44:59;;;;;;;;;;;4.20;99.90;;;;;;5039208;28;20086;-73
2022/01/11 05:47:25;;;;;;;26.08;14.32;;;4.20;99.90;;;;;;5038357;28;19928;-72
2022/01/11 05:49:50;;;;;;;34.92;13.82;;;4.20;99.90;;;;;;5038189;28;20025;-71
2022/01/11 05:52:16;;;;;;;31.80;16.40;;;4.20;99.90;;;;;;5036726;28;20034;-72
2022/01/11 05:54:42;;;;;;;;;;;4.10;99.90;;;;;;5040095;28;20576;-73
2022/01/11 05:57:07;;;;;;;22.45;13.38;;;4.10;99.90;;;;;;5039360;28;19925;-71
2022/01/11 05:59:33;;;;;;;22.67;12.73;;;4.10;99.90;;;;;;5038656;28;20508;-73
2022/01/11 06:01:58;;;;;;;27.70;12.13;;;4.10;99.90;;;;;;5039374;28;20477;-72
2022/01/11 06:04:24;;;;;;;20.15;11.02;;;4.10;99.90;;;;;;5039920;28;20021;-74
2022/01/11 06:06:51;;;;;;;19.42;11.20;;;4.10;99.90;;;;;;5040057;28;20124;-73
2022/01/11 06:09:17;;;;;;;26.13;11.23;;;4.10;99.90;;;;;;5039140;28;20469;-73
2022/01/11 06:11:42;;;;;;;22.35;11.57;;;4.00;99.90;;;;;;5039928;28;20032;-73
2022/01/11 06:14:08;;;;;;;22.58;11.32;;;4.00;99.90;;;;;;5040924;28;20383;-72
2022/01/11 06:16:34;;;;;;;21.05;11.60;;;4.00;99.90;;;;;;5040410;28;20021;-71
2022/01/11 06:18:59;;;;;;;23.98;11.60;;;3.90;99.90;;;;;;5040016;28;20106;-72
2022/01/11 06:21:25;;;;;;;22.27;10.30;;;3.90;99.90;;;;;;5038935;28;20443;-72
2022/01/11 06:23:50;;;;;;;;;;;3.80;99.90;;;;;;5039099;28;20025;-72
2022/01/11 06:26:16;;;;;;;20.42;12.40;;;3.80;99.90;;;;;;5038729;28;19909;-72
2022/01/11 06:28:42;;;;;;;18.80;10.70;;;3.80;99.90;;;;;;5040258;28;20039;-72
2022/01/11 06:31:08;;;;;;;21.55;10.48;;;3.70;99.90;;;;;;5037105;28;20223;-75
2022/01/11 06:33:33;;;;;;;;;;;3.70;99.90;;;;;;5040813;28;20053;-74
2022/01/11 06:35:59;;;;;;;19.25;10.45;;;3.70;99.90;;;;;;5040862;28;20031;-74
2022/01/11 06:38:24;;;;;;;;;;;3.70;99.90;;;;;;5039637;28;20021;-74
2022/01/11 06:40:50;;;;;;;18.05;8.95;;;3.80;99.90;;;;;;5037329;28;19924;-74
2022/01/11 06:43:16;;;;;;;20.80;10.90;;;3.80;99.90;;;;;;5037886;28;20025;-74
2022/01/11 06:45:41;;;;;;;21.45;10.85;;;3.80;99.90;;;;;;5037718;28;20080;-75
2022/01/11 06:48:08;;;;;;;19.25;10.25;;;3.80;99.90;;;;;;5039321;28;20482;-74
2022/01/11 06:50:34;;;;;;;17.15;10.00;;;3.70;99.90;;;;;;5038549;28;20475;-75
2022/01/11 06:53:00;;;;;;;28.27;13.23;;;3.70;99.90;;;;;;5039374;28;20032;-75
2022/01/11 06:55:26;;;;;;;22.92;11.38;;;3.70;99.90;;;;;;5040530;28;20021;-75
2022/01/11 06:57:51;;;;;;;;;;;3.70;99.90;;;;;;5038870;28;20063;-75
2022/01/11 07:00:18;;;;;;;17.98;9.98;;;3.70;99.90;;;;;;5040023;28;19931;-75
2022/01/11 07:02:46;;;;;;;28.13;13.90;;;3.70;99.90;;;;;;5040102;28;20030;-75
2022/01/11 07:05:11;;;;;;;23.23;11.57;;;3.70;99.90;;;;;;5040533;28;20044;-75
2022/01/11 07:07:37;;;;;;;30.42;12.25;;;3.70;99.90;;;;;;5039686;28;20049;-75
2022/01/11 07:10:03;;;;;;;25.55;11.55;;;3.70;99.90;;;;;;5040207;28;20030;-74
2022/01/11 07:12:29;;;;;;;19.65;10.20;;;3.70;99.90;;;;;;5040249;28;20013;-75
2022/01/11 07:14:54;;;;;;;24.40;10.68;;;3.60;99.90;;;;;;5033183;28;20031;-89
2022/01/11 07:17:22;;;;;;;24.27;13.00;;;3.60;99.90;;;;;;5038290;28;20102;-82
2022/01/11 07:19:48;;;;;;;18.77;10.43;;;3.50;99.90;;;;;;5034669;28;20556;-80
2022/01/11 07:22:13;;;;;;;22.45;12.30;;;3.50;99.90;;;;;;5037149;28;20124;-81
2022/01/11 07:24:39;;;;;;;21.67;10.98;;;3.50;99.90;;;;;;5038929;28;20430;-88
2022/01/11 07:27:04;;;;;;;20.42;10.82;;;3.60;99.90;;;;;;5039835;28;20029;-92
2022/01/11 07:29:30;;;;;;;18.90;10.85;;;3.70;99.90;;;;;;5041636;28;20029;-88
2022/01/11 07:31:56;;;;;;;36.85;15.43;;;3.70;99.90;;;;;;5036553;28;20033;-89
2022/01/11 07:34:21;;;;;;;21.80;11.55;;;3.70;99.90;;;;;;5050704;22;20045;-60
2022/01/11 07:36:47;;;;;;;23.45;12.60;;;3.60;99.90;;;;;;5043532;28;20147;-61
2022/01/11 07:39:13;;;;;;;21.27;11.57;;;3.60;99.90;;;;;;5044288;28;20021;-60
2022/01/11 07:41:39;;;;;;;19.08;12.02;;;3.70;99.90;;;;;;5030867;28;20075;-61
2022/01/11 07:44:05;;;;;;;;;;;3.60;99.90;;;;;;5027780;28;20064;-61
2022/01/11 07:46:30;;;;;;;23.13;11.00;;;3.70;99.90;;;;;;5030507;28;19944;-60
2022/01/11 07:48:57;;;;;;;21.25;11.23;;;3.70;99.90;;;;;;5024899;28;20026;-60
2022/01/11 07:51:23;;;;;;;29.27;11.73;;;3.70;99.90;;;;;;5025543;28;20033;-60
2022/01/11 07:53:51;;;;;;;25.02;12.27;;;3.70;99.90;;;;;;5028281;28;20620;-60
2022/01/11 07:56:16;;;;;;;24.75;11.77;;;3.80;99.90;;;;;;5028147;28;20391;-59
2022/01/11 07:58:42;;;;;;;27.50;11.90;;;3.80;99.90;;;;;;5027908;28;20033;-60
2022/01/11 08:01:07;;;;;;;;;;;3.90;99.90;;;;;;5025341;28;20037;-60
2022/01/11 08:03:33;;;;;;;22.70;11.90;;;4.00;99.90;;;;;;5029034;28;19912;-60
2022/01/11 08:05:58;;;;;;;25.63;12.05;;;4.00;99.90;;;;;;5029086;28;20033;-60
2022/01/11 08:08:24;;;;;;;29.42;12.38;;;4.10;99.90;;;;;;5033381;28;20222;-60
2022/01/11 08:10:50;;;;;;;24.63;11.98;;;4.10;99.90;;;;;;5031271;28;20043;-60
2022/01/11 08:13:16;;;;;;;20.40;12.18;;;4.10;99.90;;;;;;5030954;28;20557;-60
2022/01/11 08:15:44;;;;;;;22.38;11.25;;;4.10;99.90;;;;;;5031106;28;20029;-60
2022/01/11 08:18:09;;;;;;;25.35;11.82;;;4.10;99.90;;;;;;5033062;28;20034;-60
2022/01/11 08:20:35;;;;;;;26.75;14.90;;;4.20;99.90;;;;;;5029398;28;20512;-60
2022/01/11 08:23:00;;;;;;;36.70;14.45;;;4.10;99.90;;;;;;5033904;28;20103;-61
2022/01/11 08:25:26;;;;;;;25.05;11.90;;;4.10;99.90;;;;;;5031756;28;20017;-60
2022/01/11 08:27:52;;;;;;;;;;;4.10;99.90;;;;;;5038850;28;20029;-60
2022/01/11 08:30:18;;;;;;;21.55;12.35;;;4.20;99.90;;;;;;5026955;28;19909;-60
2022/01/11 08:32:44;;;;;;;;;;;4.20;99.90;;;;;;5031973;28;20508;-60
2022/01/11 08:35:10;;;;;;;29.60;12.88;;;4.30;99.90;;;;;;5034934;28;19913;-60
2022/01/11 08:37:36;;;;;;;26.08;12.98;;;4.30;99.90;;;;;;5030144;28;20335;-60
2022/01/11 08:40:03;;;;;;;29.88;12.55;;;4.20;99.90;;;;;;5030603;28;20439;-60
2022/01/11 08:42:29;;;;;;;29.13;13.30;;;4.30;99.90;;;;;;5030077;28;20478;-60
2022/01/11 08:44:55;;;;;;;23.73;11.48;;;4.30;99.90;;;;;;5032266;28;20025;-60
2022/01/11 08:47:21;;;;;;;26.50;11.27;;;4.30;99.90;;;;;;5026861;28;20083;-60
2022/01/11 08:49:47;;;;;;;26.58;13.15;;;4.30;99.90;;;;;;5028408;28;20518;-60
2022/01/11 08:52:13;;;;;;;;;;;4.40;99.90;;;;;;5036200;28;20036;-59
2022/01/11 08:54:39;;;;;;;23.45;11.93;;;4.40;99.90;;;;;;5032253;28;19913;-60
2022/01/11 08:57:05;;;;;;;;;;;4.40;99.90;;;;;;5028640;28;20035;-61
2022/01/11 08:59:31;;;;;;;23.85;11.50;;;4.40;99.90;;;;;;5029062;28;19916;-60
2022/01/11 09:01:59;;;;;;;26.15;12.57;;;4.50;99.90;;;;;;5025705;28;20033;-61
2022/01/11 09:04:26;;;;;;;30.95;15.73;;;4.50;99.90;;;;;;5025407;28;20036;-61
2022/01/11 09:06:57;;;;;;;23.02;11.82;;;4.60;99.90;;;;;;5026251;28;20063;-60
2022/01/11 09:09:23;;;;;;;29.13;14.00;;;4.50;99.90;;;;;;5029183;28;20086;-60
2022/01/11 09:11:48;;;;;;;24.38;12.68;;;4.60;99.90;;;;;;5029811;28;20558;-60
2022/01/11 09:14:14;;;;;;;23.42;13.13;;;4.50;99.90;;;;;;5030775;28;20048;-61
2022/01/11 09:16:39;;;;;;;26.42;12.85;;;4.40;99.90;;;;;;5032396;28;20088;-61
2022/01/11 09:19:05;;;;;;;24.83;12.30;;;4.40;99.90;;;;;;5026201;28;20040;-60
2022/01/11 09:21:31;;;;;;;34.17;18.77;;;4.40;99.90;;;;;;5027645;28;20112;-61
2022/01/11 09:23:57;;;;;;;37.58;15.60;;;4.50;99.90;;;;;;5029013;28;20508;-60
2022/01/11 09:26:23;;;;;;;33.38;15.77;;;4.60;99.90;;;;;;5029153;28;20035;-60
2022/01/11 09:28:49;;;;;;;37.40;16.98;;;4.60;99.90;;;;;;5020803;28;20096;-60
2022/01/11 09:31:16;;;;;;;40.17;16.90;;;4.60;99.90;;;;;;5034784;28;20201;-60
2022/01/11 09:33:41;;;;;;;40.67;19.92;;;4.60;99.90;;;;;;5028242;28;20533;-60
2022/01/11 09:36:07;;;;;;;31.63;15.55;;;4.50;99.90;;;;;;5032953;28;20041;-61
2022/01/11 09:38:32;;;;;;;31.17;13.93;;;4.60;99.90;;;;;;5027415;28;20405;-61
2022/01/11 09:40:59;;;;;;;30.30;14.82;;;4.60;99.90;;;;;;5033302;28;20029;-61
2022/01/11 09:43:27;;;;;;;31.92;14.85;;;4.70;99.90;;;;;;5027713;28;20033;-61
2022/01/11 09:45:55;;;;;;;27.85;14.75;;;4.70;99.90;;;;;;5023734;28;20035;-61
2022/01/11 09:48:22;;;;;;;36.53;14.60;;;4.70;99.90;;;;;;5029944;28;20037;-61
2022/01/11 09:50:48;;;;;;;29.00;13.55;;;4.70;99.90;;;;;;5029601;28;20124;-61
2022/01/11 09:53:14;;;;;;;27.95;14.85;;;4.70;99.90;;;;;;5034010;28;20116;-61
2022/01/11 09:55:41;;;;;;;31.15;14.25;;;4.80;99.90;;;;;;5032331;28;20041;-61
2022/01/11 09:58:07;;;;;;;53.83;17.88;;;4.80;99.90;;;;;;5029666;28;20454;-61
2022/01/11 10:00:32;;;;;;;32.60;15.45;;;4.80;99.90;;;;;;5029592;28;20121;-61
2022/01/11 10:02:58;;;;;;;34.60;13.50;;;4.80;99.90;;;;;;5032789;28;20057;-61
2022/01/11 10:05:24;;;;;;;27.02;12.57;;;4.80;99.90;;;;;;5024167;28;20023;-61
2022/01/11 10:07:50;;;;;;;;;;;4.90;99.90;;;;;;5026922;28;20026;-61
2022/01/11 10:10:26;;;;;;;24.05;13.27;;;4.90;99.90;;;;;;5031199;28;20382;-67
2022/01/11 10:12:54;;;;;;;27.27;13.13;;;4.90;99.90;;;;;;5039808;22;20116;-62
2022/01/11 10:15:41;;;;;;;27.08;12.07;;;4.80;99.90;;;;;;5056882;22;20077;-60
2022/01/11 10:18:06;;;;;;;26.55;11.65;;;4.70;99.90;;;;;;5041943;28;20025;-61
2022/01/11 10:20:35;;;;;;;28.65;14.05;;;4.50;99.90;;;;;;5039223;28;20564;-61
2022/01/11 10:23:08;;;;;;;21.70;12.35;;;4.60;99.90;;;;;;5031054;28;20600;-59
2022/01/11 10:25:45;;;;;;;21.67;10.95;;;4.70;99.90;;;;;;5036923;28;20087;-57
2022/01/11 10:28:11;;;;;;;24.08;12.30;;;4.60;99.90;;;;;;5030297;28;20577;-54
2022/01/11 10:30:37;;;;;;;25.42;13.30;;;4.50;99.90;;;;;;5030860;28;20160;-58
2022/01/11 10:33:07;;;;;;;22.92;12.70;;;4.50;99.90;;;;;;5036907;28;20489;-59
2022/01/11 10:35:42;;;;;;;27.25;12.30;;;4.60;99.90;;;;;;5029584;28;20392;-60
2022/01/11 10:38:10;;;;;;;25.55;14.15;;;4.70;99.90;;;;;;5035601;28;20059;-58
2022/01/11 10:40:40;;;;;;;20.92;12.05;;;4.80;99.90;;;;;;5036959;28;20037;-61
2022/01/11 10:43:11;;;;;;;23.83;11.32;;;4.90;99.90;;;;;;5033534;28;20071;-60
2022/01/11 10:45:38;;;;;;;24.73;13.27;;;5.00;99.90;;;;;;5028724;28;20037;-60
2022/01/11 10:48:17;;;;;;;26.80;12.32;;;5.00;99.90;;;;;;5034077;28;20084;-58
2022/01/11 10:50:43;;;;;;;31.05;13.05;;;5.00;99.90;;;;;;5032566;28;20036;-59
2022/01/11 10:53:15;;;;;;;26.95;14.05;;;5.00;99.90;;;;;;5034212;28;20503;-58
2022/01/11 10:55:41;;;;;;;31.45;14.02;;;5.00;99.90;;;;;;5029024;28;20055;-56
2022/01/11 10:58:10;;;;;;;29.50;13.05;;;5.00;99.90;;;;;;5036950;28;20055;-59
2022/01/11 11:00:44;;;;;;;21.38;11.18;;;5.10;99.90;;;;;;5033945;28;20033;-58
2022/01/11 11:03:14;;;;;;;26.08;12.50;;;5.10;99.90;;;;;;5031891;28;20425;-60
2022/01/11 11:05:49;;;;;;;23.00;11.02;;;5.10;99.90;;;;;;5035593;28;20060;-58
2022/01/11 11:08:22;;;;;;;27.83;12.00;;;5.20;99.90;;;;;;5033709;28;20033;-58
2022/01/11 11:11:01;;;;;;;25.52;12.60;;;5.40;99.90;;;;;;5035425;28;20692;-61
2022/01/11 11:13:38;;;;;;;28.85;13.30;;;5.30;99.90;;;;;;5035280;28;20112;-58
2022/01/11 11:16:25;;;;;;;23.15;12.23;;;5.20;99.90;;;;;;5030428;28;20065;-57
2022/01/11 11:18:59;;;;;;;27.63;12.80;;;5.20;99.90;;;;;;5030781;28;20334;-56
2022/01/11 11:21:27;;;;;;;23.02;11.45;;;5.20;99.90;;;;;;5034436;28;20040;-55
2022/01/11 11:24:00;;;;;;;22.70;12.05;;;5.30;99.90;;;;;;5033704;28;20438;-60
2022/01/11 11:26:37;;;;;;;27.60;12.13;;;5.30;99.90;;;;;;5035432;28;20022;-61
2022/01/11 11:29:04;;;;;;;26.08;11.75;;;5.30;99.90;;;;;;5033495;28;20475;-60
2022/01/11 11:31:31;;;;;;;21.05;11.55;;;5.40;99.90;;;;;;5037130;28;20025;-57
2022/01/11 11:33:57;;;;;;;24.48;12.05;;;5.40;99.90;;;;;;5036581;28;20038;-58
2022/01/11 11:36:24;;;;;;;23.42;11.90;;;5.50;99.90;;;;;;5032216;28;20075;-60
2022/01/11 11:39:03;;;;;;;26.65;12.77;;;5.40;99.90;;;;;;5030423;28;20041;-58
2022/01/11 11:41:30;;;;;;;23.13;11.80;;;5.50;99.90;;;;;;5035040;28;20398;-58
2022/01/11 11:44:21;;;;;;;26.98;12.68;;;5.50;99.90;;;;;;5025391;28;20518;-61
2022/01/11 11:46:55;;;;;;;25.13;12.40;;;5.40;99.90;;;;;;5028499;28;20026;-60
2022/01/11 11:49:53;;;;;;;32.50;15.70;;;5.40;99.90;;;;;;5033783;28;20029;-58
2022/01/11 11:52:31;;;;;;;;;;;5.40;99.90;;;;;;5036778;28;20120;-61
2022/01/11 11:55:02;;;;;;;29.52;14.07;;;5.50;99.90;;;;;;5038322;28;19909;-60
2022/01/11 11:57:31;;;;;;;30.67;12.93;;;5.50;99.90;;;;;;5037148;28;20128;-58
2022/01/11 12:00:03;;;;;;;29.48;15.48;;;5.40;99.90;;;;;;5035012;28;20402;-60
2022/01/11 12:02:33;;;;;;;33.38;15.63;;;5.40;99.90;;;;;;5027331;28;20021;-61
2022/01/11 12:05:00;;;;;;;43.97;19.48;;;5.40;99.90;;;;;;5031018;28;20078;-60
2022/01/11 12:07:49;;;;;;;43.45;18.02;;;5.40;99.90;;;;;;5031355;28;20101;-60
2022/01/11 12:10:53;;;;;;;26.85;13.65;;;5.40;99.90;;;;;;5027873;28;20091;-58
2022/01/11 12:13:37;;;;;;;24.52;13.48;;;5.40;99.90;;;;;;5029515;28;20033;-61
2022/01/11 12:16:03;;;;;;;25.45;13.10;;;5.50;99.90;;;;;;5032999;28;20167;-58
2022/01/11 12:18:41;;;;;;;;;;;5.50;99.90;;;;;;5036572;28;20120;-61
2022/01/11 12:21:07;;;;;;;35.00;11.85;;;5.60;99.90;;;;;;5032306;28;19938;-58
2022/01/11 12:23:32;;;;;;;;;;;5.70;99.90;;;;;;5031853;28;20485;-62
2022/01/11 12:26:13;;;;;;;26.77;13.05;;;5.70;99.90;;;;;;5029905;28;19924;-60
2022/01/11 12:28:39;;;;;;;21.70;12.45;;;5.80;99.90;;;;;;5031809;28;20422;-60
2022/01/11 12:31:27;;;;;;;29.45;13.95;;;5.80;99.90;;;;;;5029707;28;20032;-59
2022/01/11 12:33:54;;;;;;;33.92;12.93;;;5.70;99.90;;;;;;5031091;28;20037;-61
2022/01/11 12:36:20;;;;;;;37.33;13.95;;;5.70;99.90;;;;;;5031540;28;20024;-59
2022/01/11 12:38:59;;;;;;;;;;;5.80;99.90;;;;;;5030074;28;20382;-58
2022/01/11 12:41:29;;;;;;;25.00;10.73;;;5.90;99.90;;;;;;5034321;28;19919;-59
2022/01/11 12:47:21;;;;;;;29.02;13.40;;;5.90;99.90;;;;;;4979801;28;20038;-57
2022/01/11 12:50:09;;;;;;;28.02;11.75;;;5.90;99.90;;;;;;5033424;28;20115;-58